Tropical Cyclones
[Index]
Main Index Home Page Stock Weather Photos Extreme Storms Discussion Storm News and Storm Chasing Reports Tropical Cyclones / Hurricanes / Typhoons Weather Data and Links Wild Fires / Bushfires Weather Observation Techniques Weather Picture Catalogue Tornado Pictures and Reports Stock Video Footage and DVDs for sale
Season 1999-2000 Tropical Cyclone KIRRILY Track Map
Season 1999-2000 Summaries: [BoM-AU] [JTWC-AU] [JTWC-SIO] [JTWC-SPAC] [JTWC-SH]
<<- Previous TC | BoM 1999-2000 Season | Next TC ->>

click for intensity scale information  Lat/long Grid: Show Hide

 Date Labels: Show Hide

Bureau of Meteorology Tropical Cyclone Data

Name: KIRRILY
Number: 832 / 199900_03

24 Jan 2000 04:00 UTC to 01 Feb 2000 22:00 UTC

    date/time    lat    long    hPa   cat  kts
2000-01-24 04   11.5    99.8   1000         27          
2000-01-24 10   11.5   101.0   1000         27          
2000-01-24 16   11.7   102.3   1000         27          
2000-01-24 22   12.1   103.5   1000         27          
2000-01-25 04   12.6   104.8   1000         27          
2000-01-25 10   13.0   106.2   1000         27          
2000-01-25 16   13.1   107.1   1000         27          
2000-01-25 22   13.4   108.3   1000         27          
2000-01-26 04   13.9   109.5   1000         27          
2000-01-26 10   14.8   110.4    998         29          
2000-01-26 16   15.5   111.1    995    1    35          
2000-01-26 22   16.3   111.9    995    1    35          
2000-01-27 04   16.8   112.4    995    1    35          
2000-01-27 10   17.0   112.4    990    1    41          
2000-01-27 16   17.5   111.5    985    2    49          
2000-01-27 22   17.9   110.5    985    2    49          
2000-01-28 04   18.3   110.0    985    2    49          
2000-01-28 10   18.8   109.6    985    2    49          
2000-01-28 16   19.2   109.1    985    2    49          
2000-01-28 22   19.7   108.4    980    2    54          
2000-01-29 04   20.2   107.8    975    2    60          
2000-01-29 10   20.7   107.2    975    2    60          
2000-01-29 16   21.3   106.7    975    2    60          
2000-01-29 22   21.7   106.2    975    2    60          
2000-01-30 04   22.2   105.7    980    2    54          
2000-01-30 10   23.1   105.6    980    2    54          
2000-01-30 16   23.3   105.6    985    2    49          
2000-01-30 22   23.5   105.5    990    1    41          
2000-01-31 04   23.6   105.4    990    1    41          
2000-01-31 10   23.5   105.4    995    1    35          
2000-01-31 16   23.1   105.1   1000         27          
2000-02-01 22   22.7   104.8   1000         27          
Winds are 10-min average.

Tropical cyclone tracks developed by Michael Bath using data from the Bureau of Meteorology and Google Maps.


[Australian Severe Weather index] [Copyright Notice] [Email Contacts] [Search This Site] [Privacy Policy]
Document: tropical_cyclone_kirrily.htm Updated: 30 May 2013